Tribune, Canada
Current Conditions -  °F | °C
As of 1:55 AM on Saturday 25 Oct 2014 (Local Time) from KD50 Reporting Station
Clear Clear  
Wind Chill: -1°   Ceiling: Unl
Heat Index:   Visibility: 10mi
Dew Point: -2°   Wind: 12mph
Humidity: 70%   Direction: 260°W
Pressure: 30.07"   Gusts: NA
Location:  49.25°N, 103.82°W
Report Text: KD50 250755Z AUTO 26010KT 10SM CLR 03/M02 A3007 RMK AO2
Loading
Personal Weather Stations






























Interactive Weather Map
Tropical Storm Tracking
New forecast layout! Learn more

10-Day Weather Forecast

Advertisements
Track Severe Weather on mobile